Aviation Digital Data Service (ADDS)

Output produced by METARs form (2152 UTC 21 May 2022)
found at http://www.aviationweather.gov/metar/data/
 
GUCY 212000Z 06004KT 9999 FEW015 SCT110 26/24 Q1014 NOSIG